AMX335 MMPR-MMMX
Flight info
| Callsign | AMX335 |
|---|---|
| Flight time | 1h 11m |
| Altitude | 31000 |
| Route | VOLAT1D VOLAT UT119 ESPOS ESPOS4B |
| Aircraft | B738/M-SDE2E3FGHIRWXY/LB1 |
Departure
| Time | 2026-04-26 02:24 |
|---|---|
| Airport | Puerto Vallarta International Airport (MMPR) |
Arrival
| Time | 2026-04-26 03:35 |
|---|---|
| Airport | Mexico City Benito Juárez International Airport (MMMX) |
| Time | Latitude | Longitude | Altitude | Speed | Heading |
|---|---|---|---|---|---|
| 2026-04-26 01:55 | 20.67931 | -105.24854 | 28 ft | 0 kts | 227° |
| 2026-04-26 02:13 | 20.67938 | -105.24846 | 28 ft | 3 kts | 227° |
| 2026-04-26 02:13 | 20.67951 | -105.24831 | 28 ft | 3 kts | 242° |
| 2026-04-26 02:13 | 20.67956 | -105.24811 | 28 ft | 3 kts | 275° |
| 2026-04-26 02:14 | 20.67951 | -105.24791 | 28 ft | 3 kts | 307° |
| 2026-04-26 02:14 | 20.67944 | -105.24783 | 28 ft | 0 kts | 314° |
| 2026-04-26 02:17 | 20.67954 | -105.24793 | 28 ft | 5 kts | 316° |
| 2026-04-26 02:18 | 20.67996 | -105.24827 | 28 ft | 10 kts | 341° |
| 2026-04-26 02:18 | 20.68065 | -105.24797 | 28 ft | 13 kts | 45° |
| 2026-04-26 02:18 | 20.68134 | -105.24732 | 28 ft | 13 kts | 19° |
| 2026-04-26 02:18 | 20.68220 | -105.24705 | 28 ft | 13 kts | 17° |
| 2026-04-26 02:19 | 20.68304 | -105.24677 | 28 ft | 12 kts | 17° |
| 2026-04-26 02:19 | 20.68386 | -105.24650 | 28 ft | 12 kts | 17° |
| 2026-04-26 02:19 | 20.68465 | -105.24622 | 28 ft | 12 kts | 27° |
| 2026-04-26 02:19 | 20.68525 | -105.24564 | 28 ft | 12 kts | 46° |
| 2026-04-26 02:20 | 20.68579 | -105.24503 | 28 ft | 11 kts | 46° |
| 2026-04-26 02:20 | 20.68632 | -105.24443 | 28 ft | 11 kts | 49° |
| 2026-04-26 02:20 | 20.68682 | -105.24384 | 28 ft | 11 kts | 47° |
| 2026-04-26 02:20 | 20.68732 | -105.24327 | 28 ft | 10 kts | 47° |
| 2026-04-26 02:21 | 20.68779 | -105.24273 | 28 ft | 10 kts | 44° |
| 2026-04-26 02:21 | 20.68845 | -105.24266 | 28 ft | 10 kts | 335° |
| 2026-04-26 02:21 | 20.68869 | -105.24286 | 28 ft | 0 kts | 317° |
| 2026-04-26 02:22 | 20.68892 | -105.24308 | 28 ft | 14 kts | 317° |
| 2026-04-26 02:23 | 20.68922 | -105.24351 | 28 ft | 4 kts | 276° |
| 2026-04-26 02:23 | 20.68914 | -105.24376 | 28 ft | 4 kts | 232° |
| 2026-04-26 02:23 | 20.68893 | -105.24400 | 28 ft | 6 kts | 227° |
| 2026-04-26 02:23 | 20.68747 | -105.24565 | 29 ft | 77 kts | 226° |
| 2026-04-26 02:24 | 20.68161 | -105.25243 | 40 ft | 167 kts | 227° |
| 2026-04-26 02:24 | 20.67293 | -105.26241 | 936 ft | 185 kts | 227° |
| 2026-04-26 02:24 | 20.66424 | -105.27234 | 2316 ft | 190 kts | 227° |
| 2026-04-26 02:24 | 20.65788 | -105.27963 | 2789 ft | 215 kts | 227° |
| 2026-04-26 02:25 | 20.64684 | -105.29237 | 3277 ft | 243 kts | 227° |
| 2026-04-26 02:25 | 20.63529 | -105.30596 | 3344 ft | 258 kts | 229° |
| 2026-04-26 02:25 | 20.62336 | -105.32073 | 3556 ft | 262 kts | 229° |
| 2026-04-26 02:25 | 20.61144 | -105.33487 | 4063 ft | 256 kts | 227° |
| 2026-04-26 02:26 | 20.59858 | -105.34814 | 4400 ft | 254 kts | 215° |
| 2026-04-26 02:26 | 20.58256 | -105.35490 | 4879 ft | 249 kts | 187° |
| 2026-04-26 02:26 | 20.56532 | -105.35274 | 5132 ft | 253 kts | 156° |
| 2026-04-26 02:26 | 20.55027 | -105.34399 | 5703 ft | 242 kts | 149° |
| 2026-04-26 02:27 | 20.53576 | -105.33481 | 5981 ft | 246 kts | 150° |
| 2026-04-26 02:27 | 20.52088 | -105.32589 | 6393 ft | 241 kts | 151° |
| 2026-04-26 02:27 | 20.50657 | -105.31731 | 6887 ft | 234 kts | 152° |
| 2026-04-26 02:27 | 20.49211 | -105.30923 | 7202 ft | 233 kts | 154° |
| 2026-04-26 02:28 | 20.47779 | -105.30202 | 7751 ft | 221 kts | 154° |
| 2026-04-26 02:28 | 20.46440 | -105.29463 | 8183 ft | 215 kts | 152° |
| 2026-04-26 02:28 | 20.45145 | -105.28655 | 8449 ft | 216 kts | 148° |
| 2026-04-26 02:28 | 20.43895 | -105.27757 | 8695 ft | 218 kts | 144° |
| 2026-04-26 02:29 | 20.42715 | -105.26713 | 8876 ft | 222 kts | 136° |
| 2026-04-26 02:29 | 20.41694 | -105.25503 | 9390 ft | 218 kts | 127° |
| 2026-04-26 02:29 | 20.40830 | -105.24199 | 10127 ft | 212 kts | 123° |
| 2026-04-26 02:29 | 20.40176 | -105.22782 | 11048 ft | 214 kts | 106° |
| 2026-04-26 02:30 | 20.39954 | -105.21216 | 12025 ft | 214 kts | 90° |
| 2026-04-26 02:30 | 20.39981 | -105.19620 | 12883 ft | 220 kts | 88° |
| 2026-04-26 02:30 | 20.40017 | -105.17936 | 13526 ft | 235 kts | 89° |
| 2026-04-26 02:30 | 20.40017 | -105.16158 | 14246 ft | 246 kts | 90° |
| 2026-04-26 02:31 | 20.39994 | -105.14305 | 15039 ft | 253 kts | 91° |
| 2026-04-26 02:31 | 20.39955 | -105.12407 | 15863 ft | 259 kts | 91° |
| 2026-04-26 02:31 | 20.39904 | -105.10480 | 16694 ft | 261 kts | 92° |
| 2026-04-26 02:31 | 20.39846 | -105.08561 | 17522 ft | 263 kts | 92° |
| 2026-04-26 02:32 | 20.39781 | -105.06588 | 18358 ft | 263 kts | 92° |
| 2026-04-26 02:32 | 20.39713 | -105.04642 | 19157 ft | 263 kts | 92° |
| 2026-04-26 02:32 | 20.39643 | -105.02700 | 19923 ft | 262 kts | 92° |
| 2026-04-26 02:32 | 20.39571 | -105.00759 | 20650 ft | 261 kts | 92° |
| 2026-04-26 02:33 | 20.39499 | -104.98829 | 21357 ft | 260 kts | 92° |
| 2026-04-26 02:33 | 20.39425 | -104.96890 | 21888 ft | 268 kts | 92° |
| 2026-04-26 02:33 | 20.39346 | -104.94824 | 22031 ft | 289 kts | 92° |
| 2026-04-26 02:33 | 20.39263 | -104.92663 | 22573 ft | 293 kts | 92° |
| 2026-04-26 02:34 | 20.39181 | -104.90529 | 23272 ft | 292 kts | 92° |
| 2026-04-26 02:34 | 20.39097 | -104.88364 | 23884 ft | 294 kts | 92° |
| 2026-04-26 02:34 | 20.39012 | -104.86174 | 24425 ft | 297 kts | 92° |
| 2026-04-26 02:34 | 20.38926 | -104.83969 | 24985 ft | 299 kts | 92° |
| 2026-04-26 02:35 | 20.38838 | -104.81751 | 25514 ft | 301 kts | 92° |
| 2026-04-26 02:35 | 20.38749 | -104.79506 | 25994 ft | 305 kts | 92° |
| 2026-04-26 02:35 | 20.38658 | -104.77231 | 26459 ft | 309 kts | 92° |
| 2026-04-26 02:35 | 20.38566 | -104.74936 | 26934 ft | 311 kts | 92° |
| 2026-04-26 02:36 | 20.38473 | -104.72627 | 27424 ft | 313 kts | 92° |
| 2026-04-26 02:36 | 20.38378 | -104.70285 | 27715 ft | 322 kts | 92° |
| 2026-04-26 02:36 | 20.38279 | -104.67846 | 27808 ft | 337 kts | 92° |
| 2026-04-26 02:36 | 20.38176 | -104.65300 | 27911 ft | 351 kts | 92° |
| 2026-04-26 02:37 | 20.38067 | -104.62648 | 27993 ft | 366 kts | 92° |
| 2026-04-26 02:37 | 20.37954 | -104.59886 | 28092 ft | 380 kts | 92° |
| 2026-04-26 02:37 | 20.37837 | -104.57021 | 28179 ft | 393 kts | 92° |
| 2026-04-26 02:37 | 20.37715 | -104.54066 | 28280 ft | 406 kts | 92° |
| 2026-04-26 02:38 | 20.37589 | -104.51017 | 28364 ft | 418 kts | 92° |
| 2026-04-26 02:38 | 20.37458 | -104.47888 | 28437 ft | 429 kts | 92° |
| 2026-04-26 02:38 | 20.37324 | -104.44665 | 28498 ft | 440 kts | 92° |
| 2026-04-26 02:39 | 20.37044 | -104.38001 | 28599 ft | 460 kts | 92° |
| 2026-04-26 02:39 | 20.36748 | -104.31096 | 28823 ft | 472 kts | 94° |
| 2026-04-26 02:39 | 20.36199 | -104.27661 | 29008 ft | 471 kts | 107° |
| 2026-04-26 02:40 | 20.35193 | -104.24334 | 29265 ft | 473 kts | 108° |
| 2026-04-26 02:40 | 20.34135 | -104.21013 | 29527 ft | 475 kts | 109° |
| 2026-04-26 02:40 | 20.33064 | -104.17676 | 29789 ft | 476 kts | 109° |
| 2026-04-26 02:40 | 20.32005 | -104.14337 | 30141 ft | 476 kts | 108° |
| 2026-04-26 02:41 | 20.30959 | -104.10992 | 30475 ft | 475 kts | 108° |
| 2026-04-26 02:41 | 20.29926 | -104.07647 | 30764 ft | 476 kts | 108° |
| 2026-04-26 02:41 | 20.28898 | -104.04293 | 31010 ft | 476 kts | 108° |
| 2026-04-26 02:42 | 20.26847 | -103.97566 | 31002 ft | 476 kts | 108° |
| 2026-04-26 02:42 | 20.24818 | -103.90918 | 30999 ft | 470 kts | 108° |
| 2026-04-26 02:43 | 20.21763 | -103.80942 | 31006 ft | 474 kts | 108° |
| 2026-04-26 02:43 | 20.19709 | -103.74249 | 31000 ft | 476 kts | 108° |
| 2026-04-26 02:44 | 20.17647 | -103.67540 | 31001 ft | 478 kts | 108° |
| 2026-04-26 02:44 | 20.15572 | -103.60801 | 31008 ft | 479 kts | 108° |
| 2026-04-26 02:45 | 20.13497 | -103.54071 | 31002 ft | 478 kts | 108° |
| 2026-04-26 02:45 | 20.11428 | -103.47369 | 30996 ft | 475 kts | 108° |
| 2026-04-26 02:46 | 20.09369 | -103.40709 | 30997 ft | 472 kts | 108° |
| 2026-04-26 02:46 | 20.07325 | -103.34107 | 30995 ft | 469 kts | 108° |
| 2026-04-26 02:47 | 20.05282 | -103.27520 | 31000 ft | 469 kts | 108° |
| 2026-04-26 02:47 | 20.03248 | -103.20971 | 31005 ft | 470 kts | 108° |
| 2026-04-26 02:48 | 20.01191 | -103.14355 | 31002 ft | 472 kts | 108° |
| 2026-04-26 02:48 | 19.99121 | -103.07709 | 31005 ft | 475 kts | 108° |
| 2026-04-26 02:49 | 19.97040 | -103.01034 | 31001 ft | 476 kts | 108° |
| 2026-04-26 02:49 | 19.94946 | -102.94348 | 31003 ft | 477 kts | 109° |
| 2026-04-26 02:50 | 19.92550 | -102.87768 | 31004 ft | 478 kts | 112° |
| 2026-04-26 02:50 | 19.90007 | -102.81252 | 30996 ft | 477 kts | 112° |
| 2026-04-26 02:51 | 19.87500 | -102.74742 | 30998 ft | 475 kts | 112° |
| 2026-04-26 02:51 | 19.85032 | -102.68251 | 30995 ft | 473 kts | 112° |
| 2026-04-26 02:52 | 19.82574 | -102.61782 | 31002 ft | 472 kts | 112° |
| 2026-04-26 02:52 | 19.80113 | -102.55326 | 31002 ft | 471 kts | 112° |
| 2026-04-26 02:53 | 19.77644 | -102.48885 | 31004 ft | 471 kts | 112° |
| 2026-04-26 02:53 | 19.75168 | -102.42438 | 30999 ft | 472 kts | 112° |
| 2026-04-26 02:54 | 19.72684 | -102.35973 | 31000 ft | 474 kts | 112° |
| 2026-04-26 02:54 | 19.70185 | -102.29474 | 31009 ft | 477 kts | 112° |
| 2026-04-26 02:55 | 19.67673 | -102.22950 | 31007 ft | 479 kts | 112° |
| 2026-04-26 02:55 | 19.65162 | -102.16437 | 31001 ft | 481 kts | 112° |
| 2026-04-26 02:56 | 19.62631 | -102.09877 | 31001 ft | 480 kts | 112° |
| 2026-04-26 02:56 | 19.60096 | -102.03319 | 30995 ft | 480 kts | 112° |
| 2026-04-26 02:57 | 19.57564 | -101.96776 | 31004 ft | 479 kts | 112° |
| 2026-04-26 02:57 | 19.55033 | -101.90243 | 30995 ft | 479 kts | 112° |
| 2026-04-26 02:58 | 19.52503 | -101.83719 | 31007 ft | 478 kts | 112° |
| 2026-04-26 02:58 | 19.49973 | -101.77206 | 30999 ft | 477 kts | 112° |
| 2026-04-26 02:59 | 19.47444 | -101.70701 | 31002 ft | 477 kts | 112° |
| 2026-04-26 02:59 | 19.44918 | -101.64212 | 31000 ft | 477 kts | 112° |
| 2026-04-26 03:00 | 19.42388 | -101.57719 | 31003 ft | 476 kts | 112° |
| 2026-04-26 03:00 | 19.39856 | -101.51230 | 30997 ft | 477 kts | 112° |
| 2026-04-26 03:01 | 19.37319 | -101.44736 | 31005 ft | 478 kts | 112° |
| 2026-04-26 03:01 | 19.34775 | -101.38232 | 31004 ft | 478 kts | 112° |
| 2026-04-26 03:02 | 19.32227 | -101.31721 | 31000 ft | 479 kts | 112° |
| 2026-04-26 03:02 | 19.29680 | -101.25219 | 31000 ft | 478 kts | 112° |
| 2026-04-26 03:03 | 19.27134 | -101.18724 | 31004 ft | 476 kts | 112° |
| 2026-04-26 03:03 | 19.24602 | -101.12276 | 31000 ft | 473 kts | 112° |
| 2026-04-26 03:04 | 19.22086 | -101.05876 | 30993 ft | 469 kts | 112° |
| 2026-04-26 03:04 | 19.19587 | -100.99527 | 30996 ft | 466 kts | 112° |
| 2026-04-26 03:05 | 19.17100 | -100.93216 | 31004 ft | 464 kts | 112° |
| 2026-04-26 03:05 | 19.14633 | -100.86962 | 31003 ft | 463 kts | 112° |
| 2026-04-26 03:06 | 19.12149 | -100.80672 | 30999 ft | 463 kts | 112° |
| 2026-04-26 03:06 | 19.09664 | -100.74387 | 31003 ft | 464 kts | 112° |
| 2026-04-26 03:07 | 19.07170 | -100.68088 | 31006 ft | 465 kts | 112° |
| 2026-04-26 03:07 | 19.04673 | -100.61786 | 31003 ft | 466 kts | 112° |
| 2026-04-26 03:08 | 19.02167 | -100.55471 | 30999 ft | 466 kts | 112° |
| 2026-04-26 03:08 | 18.99656 | -100.49148 | 31001 ft | 467 kts | 113° |
| 2026-04-26 03:09 | 18.97136 | -100.42812 | 30998 ft | 468 kts | 113° |
| 2026-04-26 03:09 | 18.94615 | -100.36480 | 31003 ft | 469 kts | 113° |
| 2026-04-26 03:10 | 18.92081 | -100.30120 | 31002 ft | 470 kts | 113° |
| 2026-04-26 03:10 | 18.89544 | -100.23763 | 31001 ft | 470 kts | 113° |
| 2026-04-26 03:11 | 18.87000 | -100.17393 | 30993 ft | 472 kts | 113° |
| 2026-04-26 03:11 | 18.84449 | -100.11013 | 31005 ft | 472 kts | 113° |
| 2026-04-26 03:12 | 18.82325 | -100.05703 | 30998 ft | 472 kts | 113° |
| 2026-04-26 03:12 | 18.79767 | -99.99317 | 31004 ft | 473 kts | 113° |
| 2026-04-26 03:13 | 18.77203 | -99.92921 | 31007 ft | 473 kts | 113° |
| 2026-04-26 03:13 | 18.74679 | -99.86529 | 30979 ft | 462 kts | 108° |
| 2026-04-26 03:14 | 18.74145 | -99.83269 | 30979 ft | 444 kts | 91° |
| 2026-04-26 03:14 | 18.74389 | -99.80062 | 30715 ft | 435 kts | 77° |
| 2026-04-26 03:14 | 18.75331 | -99.77080 | 30478 ft | 425 kts | 66° |
| 2026-04-26 03:14 | 18.76518 | -99.74256 | 30228 ft | 416 kts | 65° |
| 2026-04-26 03:15 | 18.77687 | -99.71525 | 29951 ft | 401 kts | 65° |
| 2026-04-26 03:15 | 18.78816 | -99.68894 | 29689 ft | 387 kts | 65° |
| 2026-04-26 03:15 | 18.79896 | -99.66379 | 29348 ft | 376 kts | 65° |
| 2026-04-26 03:15 | 18.80976 | -99.63861 | 28970 ft | 367 kts | 65° |
| 2026-04-26 03:16 | 18.82017 | -99.61433 | 28574 ft | 359 kts | 65° |
| 2026-04-26 03:16 | 18.83022 | -99.59083 | 28198 ft | 352 kts | 65° |
| 2026-04-26 03:16 | 18.84018 | -99.56754 | 27817 ft | 345 kts | 65° |
| 2026-04-26 03:16 | 18.84996 | -99.54468 | 27433 ft | 339 kts | 65° |
| 2026-04-26 03:17 | 18.85954 | -99.52224 | 27054 ft | 332 kts | 65° |
| 2026-04-26 03:17 | 18.86897 | -99.50016 | 26664 ft | 327 kts | 65° |
| 2026-04-26 03:17 | 18.87822 | -99.47850 | 26295 ft | 321 kts | 65° |
| 2026-04-26 03:17 | 18.88733 | -99.45716 | 25923 ft | 316 kts | 65° |
| 2026-04-26 03:18 | 18.89629 | -99.43614 | 25558 ft | 313 kts | 65° |
| 2026-04-26 03:18 | 18.90519 | -99.41529 | 25216 ft | 308 kts | 65° |
| 2026-04-26 03:18 | 18.91389 | -99.39486 | 24846 ft | 302 kts | 65° |
| 2026-04-26 03:18 | 18.92242 | -99.37485 | 24459 ft | 296 kts | 65° |
| 2026-04-26 03:19 | 18.93075 | -99.35516 | 24081 ft | 291 kts | 66° |
| 2026-04-26 03:19 | 18.93892 | -99.33578 | 23693 ft | 286 kts | 66° |
| 2026-04-26 03:19 | 18.94694 | -99.31675 | 23308 ft | 282 kts | 66° |
| 2026-04-26 03:19 | 18.95485 | -99.29800 | 22927 ft | 277 kts | 66° |
| 2026-04-26 03:20 | 18.96208 | -99.27929 | 22528 ft | 273 kts | 78° |
| 2026-04-26 03:20 | 18.96211 | -99.25965 | 22145 ft | 267 kts | 105° |
| 2026-04-26 03:20 | 18.95453 | -99.24206 | 21772 ft | 262 kts | 125° |
| 2026-04-26 03:20 | 18.94379 | -99.22660 | 21413 ft | 262 kts | 127° |
| 2026-04-26 03:21 | 18.93281 | -99.21121 | 21050 ft | 263 kts | 127° |
| 2026-04-26 03:21 | 18.92183 | -99.19566 | 20690 ft | 267 kts | 127° |
| 2026-04-26 03:21 | 18.91067 | -99.17971 | 20328 ft | 272 kts | 127° |
| 2026-04-26 03:21 | 18.89938 | -99.16351 | 19965 ft | 276 kts | 126° |
| 2026-04-26 03:22 | 18.88825 | -99.14690 | 19614 ft | 278 kts | 119° |
| 2026-04-26 03:22 | 18.88241 | -99.12750 | 19251 ft | 279 kts | 100° |
| 2026-04-26 03:22 | 18.87907 | -99.10724 | 18881 ft | 281 kts | 100° |
| 2026-04-26 03:22 | 18.87567 | -99.08679 | 18508 ft | 283 kts | 100° |
| 2026-04-26 03:23 | 18.87306 | -99.06624 | 18113 ft | 284 kts | 86° |
| 2026-04-26 03:23 | 18.87937 | -99.04738 | 17989 ft | 274 kts | 53° |
| 2026-04-26 03:23 | 18.89300 | -99.03430 | 17989 ft | 261 kts | 31° |
| 2026-04-26 03:23 | 18.90999 | -99.02641 | 17376 ft | 269 kts | 15° |
| 2026-04-26 03:24 | 18.92825 | -99.02294 | 16886 ft | 272 kts | 4° |
| 2026-04-26 03:24 | 18.94739 | -99.02208 | 16392 ft | 273 kts | 1° |
| 2026-04-26 03:24 | 18.96613 | -99.02134 | 15967 ft | 270 kts | 2° |
| 2026-04-26 03:24 | 18.98480 | -99.02043 | 15797 ft | 258 kts | 2° |
| 2026-04-26 03:25 | 19.00231 | -99.01930 | 15429 ft | 256 kts | 4° |
| 2026-04-26 03:25 | 19.01997 | -99.01783 | 15051 ft | 253 kts | 5° |
| 2026-04-26 03:25 | 19.03742 | -99.01604 | 14605 ft | 253 kts | 5° |
| 2026-04-26 03:25 | 19.05498 | -99.01401 | 14167 ft | 253 kts | 5° |
| 2026-04-26 03:26 | 19.07241 | -99.01267 | 13861 ft | 247 kts | 2° |
| 2026-04-26 03:26 | 19.07816 | -99.01238 | 13802 ft | 244 kts | 2° |
| 2026-04-26 03:26 | 19.09452 | -99.01180 | 13587 ft | 238 kts | 1° |
| 2026-04-26 03:26 | 19.11093 | -99.01180 | 13296 ft | 235 kts | 358° |
| 2026-04-26 03:27 | 19.12726 | -99.01247 | 12929 ft | 235 kts | 356° |
| 2026-04-26 03:27 | 19.14353 | -99.01379 | 12627 ft | 233 kts | 354° |
| 2026-04-26 03:27 | 19.15942 | -99.01536 | 12398 ft | 227 kts | 354° |
| 2026-04-26 03:27 | 19.17499 | -99.01689 | 12172 ft | 221 kts | 351° |
| 2026-04-26 03:28 | 19.18876 | -99.02302 | 12079 ft | 213 kts | 322° |
| 2026-04-26 03:28 | 19.19984 | -99.03318 | 12190 ft | 207 kts | 317° |
| 2026-04-26 03:28 | 19.21040 | -99.04337 | 12244 ft | 205 kts | 318° |
| 2026-04-26 03:28 | 19.22128 | -99.05318 | 12233 ft | 206 kts | 320° |
| 2026-04-26 03:29 | 19.23235 | -99.06259 | 12258 ft | 205 kts | 321° |
| 2026-04-26 03:29 | 19.24367 | -99.07178 | 12283 ft | 204 kts | 320° |
| 2026-04-26 03:29 | 19.25361 | -99.08231 | 12302 ft | 203 kts | 308° |
| 2026-04-26 03:29 | 19.26193 | -99.09461 | 12176 ft | 210 kts | 304° |
| 2026-04-26 03:30 | 19.27080 | -99.10769 | 11812 ft | 228 kts | 306° |
| 2026-04-26 03:30 | 19.28062 | -99.12149 | 11521 ft | 239 kts | 307° |
| 2026-04-26 03:30 | 19.29061 | -99.13534 | 11337 ft | 236 kts | 307° |
| 2026-04-26 03:30 | 19.30049 | -99.14887 | 11136 ft | 227 kts | 307° |
| 2026-04-26 03:31 | 19.30970 | -99.16195 | 10965 ft | 209 kts | 306° |
| 2026-04-26 03:31 | 19.31809 | -99.17381 | 10717 ft | 198 kts | 308° |
| 2026-04-26 03:31 | 19.32712 | -99.18456 | 10399 ft | 192 kts | 317° |
| 2026-04-26 03:31 | 19.33815 | -99.19234 | 10013 ft | 193 kts | 336° |
| 2026-04-26 03:32 | 19.35127 | -99.19539 | 9590 ft | 195 kts | 359° |
| 2026-04-26 03:32 | 19.36401 | -99.19264 | 9449 ft | 182 kts | 24° |
| 2026-04-26 03:32 | 19.37311 | -99.18482 | 9286 ft | 167 kts | 53° |
| 2026-04-26 03:32 | 19.37885 | -99.17379 | 9021 ft | 173 kts | 63° |
| 2026-04-26 03:33 | 19.38469 | -99.16246 | 8842 ft | 174 kts | 59° |
| 2026-04-26 03:33 | 19.39080 | -99.15166 | 8698 ft | 174 kts | 58° |
| 2026-04-26 03:33 | 19.39682 | -99.14061 | 8507 ft | 176 kts | 61° |
| 2026-04-26 03:33 | 19.40284 | -99.12920 | 8283 ft | 179 kts | 59° |
| 2026-04-26 03:34 | 19.40897 | -99.11830 | 8076 ft | 181 kts | 59° |
| 2026-04-26 03:34 | 19.41540 | -99.10692 | 7808 ft | 185 kts | 59° |
| 2026-04-26 03:34 | 19.42183 | -99.09528 | 7576 ft | 185 kts | 59° |
| 2026-04-26 03:34 | 19.42815 | -99.08390 | 7377 ft | 184 kts | 59° |
| 2026-04-26 03:35 | 19.43436 | -99.07271 | 7301 ft | 166 kts | 69° |
| 2026-04-26 03:35 | 19.43884 | -99.06470 | 7302 ft | 95 kts | 57° |
| 2026-04-26 03:35 | 19.44074 | -99.06139 | 7300 ft | 31 kts | 60° |
| 2026-04-26 03:35 | 19.44177 | -99.05947 | 7300 ft | 29 kts | 60° |
| 2026-04-26 03:36 | 19.44154 | -99.05837 | 7302 ft | 17 kts | 168° |
| 2026-04-26 03:36 | 19.44039 | -99.05872 | 7302 ft | 18 kts | 221° |
| 2026-04-26 03:36 | 19.43967 | -99.05985 | 7302 ft | 19 kts | 237° |
| 2026-04-26 03:36 | 19.43899 | -99.06104 | 7302 ft | 19 kts | 239° |
| 2026-04-26 03:37 | 19.43831 | -99.06228 | 7302 ft | 20 kts | 240° |
| 2026-04-26 03:37 | 19.43759 | -99.06361 | 7302 ft | 21 kts | 240° |
| 2026-04-26 03:37 | 19.43680 | -99.06492 | 7302 ft | 21 kts | 238° |
| 2026-04-26 03:37 | 19.43609 | -99.06624 | 7302 ft | 21 kts | 242° |
| 2026-04-26 03:38 | 19.43506 | -99.06727 | 7302 ft | 21 kts | 207° |
| 2026-04-26 03:38 | 19.43413 | -99.06831 | 7302 ft | 20 kts | 248° |
| 2026-04-26 03:38 | 19.43347 | -99.06960 | 7302 ft | 20 kts | 238° |
| 2026-04-26 03:38 | 19.43271 | -99.07091 | 7302 ft | 21 kts | 246° |
| 2026-04-26 03:39 | 19.43251 | -99.07244 | 7302 ft | 21 kts | 254° |
| 2026-04-26 03:39 | 19.43180 | -99.07378 | 7302 ft | 21 kts | 238° |
| 2026-04-26 03:39 | 19.43104 | -99.07514 | 7302 ft | 22 kts | 238° |
| 2026-04-26 03:39 | 19.43024 | -99.07653 | 7302 ft | 23 kts | 238° |
| 2026-04-26 03:40 | 19.42940 | -99.07798 | 7302 ft | 24 kts | 238° |
| 2026-04-26 03:40 | 19.42898 | -99.07840 | 7302 ft | 10 kts | 182° |
| 2026-04-26 03:40 | 19.42790 | -99.07876 | 7302 ft | 18 kts | 196° |
| 2026-04-26 03:40 | 19.42677 | -99.07831 | 7302 ft | 17 kts | 147° |
| 2026-04-26 03:41 | 19.42591 | -99.07855 | 7302 ft | 15 kts | 242° |
| 2026-04-26 03:41 | 19.42545 | -99.07946 | 7302 ft | 14 kts | 239° |
| 2026-04-26 03:41 | 19.42496 | -99.08033 | 7302 ft | 13 kts | 239° |
| 2026-04-26 03:41 | 19.42449 | -99.08048 | 7302 ft | 7 kts | 165° |
| 2026-04-26 03:42 | 19.42404 | -99.08025 | 7302 ft | 7 kts | 152° |
| 2026-04-26 03:42 | 19.42366 | -99.07993 | 7302 ft | 7 kts | 133° |
| 2026-04-26 03:42 | 19.42339 | -99.07952 | 7302 ft | 7 kts | 102° |
| 2026-04-26 03:42 | 19.42354 | -99.07905 | 7302 ft | 7 kts | 59° |
| 2026-04-26 03:43 | 19.42370 | -99.07877 | 7302 ft | 2 kts | 59° |
| 2026-04-26 03:43 | 19.42370 | -99.07876 | 7302 ft | 0 kts | 59° |